Date,TemperatureHighF,TemperatureAvgF,TemperatureLowF,DewpointHighF,DewpointAvgF,DewpointLowF,HumidityHigh,HumidityAvg,HumidityLow,PressureMaxIn,PressureMinIn,WindSpeedMaxMPH,WindSpeedAvgMPH,GustSpeedMaxMPH,PrecipitationSumIn
2013-8-1,89,84,78,77,75,72,92,76,62,30.05,29.93,12,4,17,0.00
2013-8-2,92,82,77,78,75,72,94,80,56,30.05,29.91,7,1,10,0.11
2013-8-3,89,79,72,80,76,70,98,93,73,30.12,30.01,9,0,18,0.52
2013-8-4,95,83,76,80,76,74,97,80,51,30.11,29.97,9,1,12,0.00
2013-8-5,92,82,78,79,75,70,85,78,61,30.04,29.94,7,1,14,0.02
2013-8-6,94,83,77,81,72,62,78,70,58,29.98,29.88,7,1,17,0.03
2013-8-7,93,84,77,78,72,60,77,69,54,29.97,29.90,11,1,14,0.00
2013-8-8,92,86,81,78,75,73,79,72,60,30.00,29.91,12,3,17,0.00
2013-8-9,89,83,76,78,73,64,80,74,61,30.05,29.94,11,2,20,0.32
2013-8-10,92,85,80,78,76,73,81,74,58,30.11,30.02,14,4,17,0.00
2013-8-11,92,86,81,79,77,75,82,75,61,30.12,30.05,11,4,17,0.00
2013-8-12,91,85,79,78,76,70,84,75,54,30.10,30.00,15,3,17,0.00
2013-8-13,94,86,79,80,76,73,85,73,53,30.04,29.95,8,2,13,0.01
2013-8-14,94,85,78,79,75,71,87,73,53,30.02,29.92,10,1,14,0.00
2013-8-15,88,81,78,79,75,71,86,82,74,30.05,29.95,6,1,10,0.18
2013-8-16,95,86,79,80,75,67,81,71,58,30.05,29.96,12,2,14,0.00
2013-8-17,93,86,82,79,77,75,83,75,61,30.07,29.99,11,2,15,0.02
2013-8-18,90,85,80,80,78,75,86,78,68,30.07,29.98,15,4,17,0.15
2013-8-19,92,85,78,80,76,72,86,76,59,30.07,29.95,13,2,17,0.14
2013-8-20,92,85,81,78,77,74,86,76,60,30.05,29.97,12,3,16,0.07
2013-8-21,90,84,79,81,78,75,87,83,69,30.06,29.98,13,3,18,0.38
2013-8-22,91,84,77,80,77,73,88,79,67,30.06,29.94,12,3,15,0.21
2013-8-23,92,84,78,80,77,74,88,81,65,30.01,29.92,10,2,13,0.25
2013-8-24,96,84,78,80,77,73,88,78,57,30.11,29.96,12,2,14,0.21
2013-8-25,88,81,77,78,74,71,88,81,68,30.14,30.02,8,2,13,0.00
2013-8-26,90,82,78,78,75,73,87,80,64,30.11,30.00,11,1,17,0.00
2013-8-27,88,80,76,77,74,70,87,82,65,30.04,29.96,8,1,14,0.33
2013-8-28,89,80,73,77,73,68,86,80,64,30.04,29.94,9,1,14,0.11
2013-8-29,93,83,76,78,74,67,85,74,56,30.02,29.92,8,1,12,0.00
2013-8-30,96,85,76,78,74,68,84,71,46,30.00,29.89,9,1,14,0.00
2013-8-31,94,80,73,78,72,67,85,79,57,29.98,29.91,11,1,15,0.40